createdAt,value
2019-03-18T00:00:55.620Z,99647.70
2019-03-18T00:03:24.500Z,99653.41
2019-03-18T00:05:53.528Z,99654.34
2019-03-18T00:08:22.429Z,99647.77
2019-03-18T00:10:51.456Z,99656.09
2019-03-18T00:13:20.461Z,99664.86
2019-03-18T00:15:49.595Z,99659.66
2019-03-18T00:18:18.592Z,99668.06
2019-03-18T00:20:47.620Z,99670.69
2019-03-18T00:23:16.632Z,99680.83
2019-03-18T00:25:45.751Z,99681.27
2019-03-18T00:28:14.608Z,99679.58
2019-03-18T00:31:02.680Z,99679.64
2019-03-18T00:33:31.687Z,99682.72
2019-03-18T00:36:00.705Z,99689.36
2019-03-18T00:38:29.711Z,99679.71
2019-03-18T00:40:58.744Z,99692.92
2019-03-18T00:43:27.688Z,99688.63
2019-03-18T00:45:56.704Z,99696.06
2019-03-18T00:48:25.699Z,99700.07
2019-03-18T00:51:15.216Z,99692.12
2019-03-18T00:53:44.088Z,99698.24
2019-03-18T00:56:13.009Z,99696.99
2019-03-18T00:58:41.878Z,99693.50
2019-03-18T01:01:10.766Z,99692.63
2019-03-18T01:03:39.864Z,99691.73
2019-03-18T01:06:08.826Z,99694.36
2019-03-18T01:08:37.942Z,99701.89
2019-03-18T01:11:07.106Z,99707.64
2019-03-18T01:13:36.441Z,99704.59
2019-03-18T01:16:05.444Z,99704.59
2019-03-18T01:18:34.494Z,99703.34
2019-03-18T01:21:03.547Z,99716.97
2019-03-18T01:23:51.407Z,99716.48
2019-03-18T01:26:20.294Z,99713.34
2019-03-18T01:28:49.521Z,99707.22
2019-03-18T01:31:18.528Z,99712.95
2019-03-18T01:33:47.605Z,99702.51
2019-03-18T01:36:16.612Z,99711.70
2019-03-18T01:38:45.543Z,99702.09
2019-03-18T01:41:14.593Z,99715.66
2019-03-18T01:44:02.604Z,99713.92
2019-03-18T01:46:31.515Z,99703.47
2019-03-18T01:49:00.392Z,99693.44
2019-03-18T01:51:29.322Z,99693.95
2019-03-18T01:53:58.403Z,99686.06
2019-03-18T01:56:27.417Z,99683.05
2019-03-18T01:58:56.346Z,99693.08
2019-03-18T02:01:25.354Z,99688.76
2019-03-18T02:03:54.372Z,99706.77
2019-03-18T02:06:23.245Z,99690.52
2019-03-18T02:08:52.186Z,99685.27
2019-03-18T02:11:21.158Z,99697.51
2019-03-18T02:13:50.153Z,99689.69
2019-03-18T02:16:19.181Z,99691.06
2019-03-18T02:18:48.283Z,99696.70
2019-03-18T02:21:17.352Z,99694.95
2019-03-18T02:23:46.431Z,99706.42
2019-03-18T02:26:15.289Z,99706.42
2019-03-18T02:28:47.197Z,99711.61
2019-03-18T02:31:14.903Z,99707.67
2019-03-18T02:33:43.755Z,99703.41
2019-03-18T02:36:12.557Z,99700.39
2019-03-18T02:38:41.453Z,99709.97
2019-03-18T02:41:10.417Z,99703.86
2019-03-18T02:43:39.389Z,99701.70
2019-03-18T02:46:10.534Z,99696.58
2019-03-18T02:48:38.916Z,99693.53
2019-03-18T02:51:08.328Z,99704.47
2019-03-18T02:53:38.368Z,99697.02
2019-03-18T02:56:07.660Z,99697.47
2019-03-18T02:58:36.963Z,99691.39
2019-03-18T03:01:06.070Z,99705.36
2019-03-18T03:03:37.010Z,99699.27
2019-03-18T03:06:05.993Z,99708.91
2019-03-18T03:08:35.913Z,99704.11
2019-03-18T03:11:05.050Z,99692.28
2019-03-18T03:13:33.937Z,99694.14
2019-03-18T03:16:02.749Z,99698.02
2019-03-18T03:18:31.858Z,99702.02
2019-03-18T03:21:01.081Z,99698.53
2019-03-18T03:23:30.059Z,99688.95
2019-03-18T03:25:59.096Z,99705.23
2019-03-18T03:28:28.009Z,99710.03
2019-03-18T03:30:56.819Z,99718.30
2019-03-18T03:33:25.850Z,99720.54
2019-03-18T03:35:54.931Z,99726.18
2019-03-18T03:38:43.085Z,99722.69
2019-03-18T03:41:11.880Z,99730.64
2019-03-18T03:43:40.905Z,99731.95
2019-03-18T03:46:09.908Z,99739.83
2019-03-18T03:48:38.805Z,99746.46
2019-03-18T03:51:07.646Z,99747.77
2019-03-18T03:53:36.500Z,99748.31
2019-03-18T03:56:05.827Z,99756.20
2019-03-18T03:58:34.694Z,99757.52
2019-03-18T04:01:03.702Z,99768.86
2019-03-18T04:03:38.748Z,99769.72
2019-03-18T04:06:03.297Z,99778.53
2019-03-18T04:08:32.450Z,99778.59
2019-03-18T04:11:01.423Z,99779.42
2019-03-18T04:13:30.363Z,99781.28
2019-03-18T04:15:59.341Z,99786.53
2019-03-18T04:18:28.372Z,99779.97
2019-03-18T04:20:57.375Z,99773.84
2019-03-18T04:23:26.389Z,99778.17
2019-03-18T04:25:55.428Z,99780.92
2019-03-18T04:28:24.492Z,99781.34
2019-03-18T04:30:53.330Z,99784.03
2019-03-18T04:33:22.245Z,99780.98
2019-03-18T04:35:51.220Z,99791.97
2019-03-18T04:38:20.158Z,99795.91
2019-03-18T04:40:49.174Z,99805.11
2019-03-18T04:43:18.147Z,99805.16
2019-03-18T04:45:47.068Z,99799.44
2019-03-18T04:48:15.926Z,99792.92
2019-03-18T04:50:44.772Z,99807.38
2019-03-18T04:53:13.789Z,99810.48
2019-03-18T04:55:42.612Z,99805.67
2019-03-18T04:58:11.573Z,99817.05
2019-03-18T05:00:40.580Z,99818.80
2019-03-18T05:03:09.576Z,99831.50
2019-03-18T05:05:38.552Z,99836.27
2019-03-18T05:08:07.439Z,99839.77
2019-03-18T05:10:36.711Z,99831.94
2019-03-18T05:13:05.675Z,99829.81
2019-03-18T05:15:34.661Z,99843.44
2019-03-18T05:18:03.694Z,99843.88
2019-03-18T05:20:32.609Z,99844.27
2019-03-18T05:23:01.402Z,99849.58
2019-03-18T05:25:30.280Z,99853.02
2019-03-18T05:27:59.140Z,99857.82
2019-03-18T05:30:28.119Z,99856.03
2019-03-18T05:32:56.988Z,99855.14
2019-03-18T05:35:25.825Z,99864.27
2019-03-18T05:37:54.843Z,99867.73
2019-03-18T05:40:23.665Z,99865.91
2019-03-18T05:42:52.590Z,99873.30
2019-03-18T05:45:21.690Z,99885.45
2019-03-18T05:47:50.602Z,99886.76
2019-03-18T05:50:19.540Z,99883.20
2019-03-18T05:52:48.646Z,99887.09
2019-03-18T05:55:17.874Z,99886.64
2019-03-18T05:57:46.879Z,99890.97
2019-03-18T06:00:15.912Z,99887.78
2019-03-18T06:02:47.058Z,99885.36
2019-03-18T06:05:15.916Z,99894.20
2019-03-18T06:07:45.381Z,99892.67
2019-03-18T06:10:15.096Z,99909.22
2019-03-18T06:12:44.220Z,99902.56
2019-03-18T06:15:13.039Z,99909.37
2019-03-18T06:17:51.569Z,99913.59
